Time;durP1;ratioP1;P1;durP2;ratioP2;P2;SDS_P1;SDS_P2;PMS_P1;PMS_P2;Temp;Humidity;BMP_temperature;BMP_pressure;BME280_temperature;BME280_humidity;BME280_pressure;Samples;Min_cycle;Max_cycle;Signal;HPM_P1;HPM_P2
2021/06/17 00:00:27;;;;;;;11.35;10.25;;;20.30;99.90;;;;;;5085361;28;20094;-79
2021/06/17 00:02:54;;;;;;;11.27;10.27;;;20.40;99.90;;;;;;5086286;28;20126;-79
2021/06/17 00:05:21;;;;;;;11.60;9.07;;;20.50;99.90;;;;;;5086643;28;20037;-79
2021/06/17 00:07:48;;;;;;;11.40;10.15;;;20.40;99.90;;;;;;5085136;28;20039;-79
2021/06/17 00:10:16;;;;;;;11.00;10.00;;;20.40;99.90;;;;;;5085175;28;20041;-80
2021/06/17 00:12:42;;;;;;;11.68;10.68;;;20.30;99.90;;;;;;5085159;28;20020;-80
2021/06/17 00:15:10;;;;;;;10.43;9.32;;;20.20;99.90;;;;;;5084960;28;20656;-79
2021/06/17 00:17:36;;;;;;;12.52;11.35;;;20.30;99.90;;;;;;5086102;28;20052;-79
2021/06/17 00:20:03;;;;;;;12.45;11.25;;;20.20;99.90;;;;;;5068282;28;20062;-79
2021/06/17 00:22:29;;;;;;;12.88;11.38;;;20.20;99.90;;;;;;5068299;28;20024;-79
2021/06/17 00:24:54;;;;;;;13.80;12.55;;;20.10;99.90;;;;;;5086051;28;20024;-79
2021/06/17 00:27:21;;;;;;;13.50;12.20;;;20.00;99.90;;;;;;5068318;28;20084;-79
2021/06/17 00:29:47;;;;;;;13.05;11.85;;;20.00;99.90;;;;;;5084864;28;20086;-78
2021/06/17 00:32:12;;;;;;;12.35;11.15;;;19.90;99.90;;;;;;5084622;28;20505;-79
2021/06/17 00:34:38;;;;;;;12.15;10.98;;;19.90;99.90;;;;;;5085130;28;20033;-80
2021/06/17 00:37:05;;;;;;;12.60;11.40;;;19.80;99.90;;;;;;5068052;28;20032;-79
2021/06/17 00:39:31;;;;;;;12.48;11.35;;;19.80;99.90;;;;;;5084878;28;20038;-79
2021/06/17 00:41:56;;;;;;;13.07;11.80;;;19.80;99.90;;;;;;5084720;28;20368;-79
2021/06/17 00:44:22;;;;;;;13.30;12.07;;;19.80;99.90;;;;;;5084594;28;20469;-79
2021/06/17 00:46:48;;;;;;;12.38;11.02;;;19.70;99.90;;;;;;5067947;28;20024;-79
2021/06/17 00:49:13;;;;;;;12.85;11.55;;;19.70;99.90;;;;;;5067609;28;20032;-79
2021/06/17 00:51:39;;;;;;;12.73;11.43;;;19.80;99.90;;;;;;5068127;28;20032;-79
2021/06/17 00:54:07;;;;;;;13.27;11.75;;;19.70;99.90;;;;;;5101262;28;20127;-80
2021/06/17 00:56:33;;;;;;;13.90;12.65;;;19.60;99.90;;;;;;5067890;28;20130;-78
2021/06/17 00:59:00;;;;;;;13.30;11.90;;;19.60;99.90;;;;;;5067925;28;20100;-79
2021/06/17 01:01:25;;;;;;;13.32;11.88;;;19.60;99.90;;;;;;5101423;28;20059;-79
2021/06/17 01:03:51;;;;;;;13.05;11.75;;;19.60;99.90;;;;;;5084278;28;20025;-79
2021/06/17 01:06:17;;;;;;;12.70;11.52;;;19.60;99.90;;;;;;5084524;28;20032;-79
2021/06/17 01:08:49;;;;;;;13.30;12.00;;;19.60;99.90;;;;;;5084361;28;20060;-78
2021/06/17 01:11:30;;;;;;;12.38;11.13;;;19.60;99.90;;;;;;5084684;28;20032;-79
2021/06/17 01:14:01;;;;;;;13.80;12.38;;;19.40;99.90;;;;;;5067462;28;20032;-78
2021/06/17 01:16:51;;;;;;;12.50;11.20;;;19.40;99.90;;;;;;5084352;28;20033;-79
2021/06/17 01:19:31;;;;;;;12.27;11.27;;;19.30;99.90;;;;;;5085531;28;20032;-79
2021/06/17 01:22:29;;;;;;;12.55;11.38;;;19.40;99.90;;;;;;5084463;28;20426;-79
2021/06/17 01:25:39;;;;;;;13.43;11.48;;;19.40;99.90;;;;;;5084263;28;20115;-79
2021/06/17 01:28:19;;;;;;;12.93;10.95;;;19.40;99.90;;;;;;5084365;28;20032;-79
2021/06/17 01:31:07;;;;;;;13.48;11.93;;;19.40;99.90;;;;;;5067491;28;20110;-79
2021/06/17 01:33:36;;;;;;;12.95;11.65;;;19.30;99.90;;;;;;5067319;28;20036;-79
2021/06/17 01:36:10;;;;;;;13.52;12.23;;;19.30;99.90;;;;;;5067317;28;20044;-78
2021/06/17 01:38:37;;;;;;;12.45;11.35;;;19.20;99.90;;;;;;5067463;28;20036;-79
2021/06/17 01:41:04;;;;;;;11.60;10.50;;;19.20;99.90;;;;;;5084216;28;20037;-80
2021/06/17 01:43:31;;;;;;;11.95;10.85;;;19.30;99.90;;;;;;5067245;28;20032;-79
2021/06/17 01:46:19;;;;;;;11.07;10.07;;;19.30;99.90;;;;;;5087060;28;20043;-78
2021/06/17 01:48:47;;;;;;;11.82;10.68;;;19.30;99.90;;;;;;5087913;28;20032;-79
2021/06/17 01:51:19;;;;;;;12.43;11.25;;;19.30;99.90;;;;;;5087573;28;20056;-79
2021/06/17 01:53:47;;;;;;;12.43;11.13;;;19.20;99.90;;;;;;5104717;28;20066;-79
2021/06/17 01:56:13;;;;;;;12.35;11.15;;;19.10;99.90;;;;;;5087873;28;20044;-79
2021/06/17 01:58:40;;;;;;;11.70;10.63;;;19.20;99.90;;;;;;5087931;28;20420;-79
2021/06/17 02:01:06;;;;;;;11.52;10.38;;;19.20;99.90;;;;;;5089118;28;20032;-79
2021/06/17 02:03:33;;;;;;;11.85;10.73;;;19.20;99.90;;;;;;5087471;28;20033;-79
2021/06/17 02:06:00;;;;;;;11.70;10.70;;;19.20;99.90;;;;;;5087446;28;20036;-79
2021/06/17 02:08:25;;;;;;;11.55;10.60;;;19.10;99.90;;;;;;5104541;28;20054;-79
2021/06/17 02:10:52;;;;;;;14.10;12.75;;;19.20;99.90;;;;;;5088816;28;20071;-78
2021/06/17 02:13:20;;;;;;;12.45;11.25;;;19.00;99.90;;;;;;5088797;28;20142;-79
2021/06/17 02:15:47;;;;;;;12.98;11.70;;;19.00;99.90;;;;;;5088521;28;20029;-79
2021/06/17 02:18:18;;;;;;;15.02;13.52;;;19.00;99.90;;;;;;5087493;28;20095;-79
2021/06/17 02:20:44;;;;;;;15.18;13.75;;;18.90;99.90;;;;;;5088661;28;20065;-79
2021/06/17 02:23:13;;;;;;;14.25;12.85;;;18.80;99.90;;;;;;5088773;28;20066;-80
2021/06/17 02:25:40;;;;;;;14.23;12.73;;;18.80;99.90;;;;;;5091285;28;20027;-80
2021/06/17 02:28:12;;;;;;;15.82;14.23;;;18.90;99.90;;;;;;5089149;28;20646;-79
2021/06/17 02:30:40;;;;;;;14.02;12.77;;;18.70;99.90;;;;;;5087324;28;20032;-79
2021/06/17 02:33:10;;;;;;;13.88;12.63;;;18.60;99.90;;;;;;5087096;28;20029;-79
2021/06/17 02:35:37;;;;;;;14.93;13.13;;;18.70;99.90;;;;;;5087123;28;20025;-79
2021/06/17 02:38:07;;;;;;;13.38;12.15;;;18.60;99.90;;;;;;5087197;28;20058;-79
2021/06/17 02:40:36;;;;;;;14.57;13.27;;;18.70;99.90;;;;;;5070482;28;20028;-79
2021/06/17 02:43:07;;;;;;;13.60;12.23;;;18.70;99.90;;;;;;5087128;28;20032;-80
2021/06/17 02:45:56;;;;;;;16.50;13.70;;;18.60;99.90;;;;;;5086974;28;20033;-78
2021/06/17 02:48:22;;;;;;;15.40;13.88;;;18.60;99.90;;;;;;4993052;28;20041;-79
2021/06/17 02:50:48;;;;;;;15.60;14.10;;;18.60;99.90;;;;;;5025466;28;20056;-78
2021/06/17 02:53:13;;;;;;;14.70;13.20;;;18.50;99.90;;;;;;5025607;28;20034;-79
2021/06/17 02:55:41;;;;;;;14.93;13.43;;;18.60;99.90;;;;;;5025106;28;20065;-79
2021/06/17 02:58:31;;;;;;;15.45;13.90;;;18.70;99.90;;;;;;5008846;28;20096;-79
2021/06/17 03:01:26;;;;;;;14.80;13.40;;;18.50;99.90;;;;;;5009268;28;20030;-79
2021/06/17 03:03:54;;;;;;;14.25;12.93;;;18.50;99.90;;;;;;5025555;28;20045;-79
2021/06/17 03:06:38;;;;;;;14.43;13.02;;;18.50;99.90;;;;;;5008927;28;20034;-79
2021/06/17 03:09:09;;;;;;;14.45;12.98;;;18.50;99.90;;;;;;5030820;28;20048;-79
2021/06/17 03:11:35;;;;;;;13.75;12.45;;;18.40;99.90;;;;;;5045082;28;20468;-78
2021/06/17 03:14:16;;;;;;;14.02;12.73;;;18.40;99.90;;;;;;5028703;28;20060;-79
2021/06/17 03:16:46;;;;;;;12.68;11.38;;;18.40;99.90;;;;;;5028371;28;20037;-79
2021/06/17 03:19:13;;;;;;;12.35;11.20;;;18.50;99.90;;;;;;5028538;28;20042;-80
2021/06/17 03:21:50;;;;;;;13.07;11.68;;;18.50;99.90;;;;;;5028280;28;20041;-79
2021/06/17 03:24:19;;;;;;;13.25;11.95;;;18.50;99.90;;;;;;5030712;28;20046;-79
2021/06/17 03:26:48;;;;;;;14.35;12.85;;;18.40;99.90;;;;;;5069322;28;20025;-79
2021/06/17 03:29:17;;;;;;;14.38;12.98;;;18.40;99.90;;;;;;5087339;28;20175;-79
2021/06/17 03:31:43;;;;;;;14.10;12.18;;;18.40;99.90;;;;;;5087284;28;20542;-79
2021/06/17 03:34:09;;;;;;;15.20;12.23;;;18.40;99.90;;;;;;5086896;28;20111;-79
2021/06/17 03:36:37;;;;;;;14.52;13.20;;;18.40;99.90;;;;;;5068436;28;20032;-80
2021/06/17 03:39:05;;;;;;;14.52;12.55;;;18.40;99.90;;;;;;5068431;28;20028;-79
2021/06/17 03:41:32;;;;;;;12.90;11.63;;;18.40;99.90;;;;;;5085129;28;20059;-78
2021/06/17 03:43:59;;;;;;;12.50;11.27;;;18.40;99.90;;;;;;5086280;28;20021;-79
2021/06/17 03:46:26;;;;;;;11.77;10.68;;;18.50;99.90;;;;;;5084723;28;20056;-78
2021/06/17 03:48:54;;;;;;;12.95;11.63;;;18.50;99.90;;;;;;5086287;28;20028;-79
2021/06/17 03:51:20;;;;;;;11.50;10.40;;;18.60;99.90;;;;;;5086057;28;20059;-79
2021/06/17 03:53:46;;;;;;;12.32;10.73;;;18.80;99.90;;;;;;5084420;28;20033;-79
2021/06/17 03:56:13;;;;;;;9.77;8.52;;;18.90;99.90;;;;;;5084921;28;20050;-80
2021/06/17 03:58:42;;;;;;;10.50;9.13;;;19.10;99.90;;;;;;5084664;28;20029;-79
2021/06/17 04:01:09;;;;;;;9.23;8.30;;;19.20;99.90;;;;;;5084757;28;20082;-79
2021/06/17 04:03:35;;;;;;;9.18;8.38;;;19.30;99.90;;;;;;5084335;28;20036;-79
2021/06/17 04:06:02;;;;;;;9.13;8.15;;;19.40;99.90;;;;;;5084673;28;20024;-80
2021/06/17 04:08:31;;;;;;;9.02;8.07;;;19.50;99.90;;;;;;5084131;28;20036;-80
2021/06/17 04:11:00;;;;;;;10.48;7.30;;;19.60;99.90;;;;;;5084449;28;20044;-79
2021/06/17 04:13:33;;;;;;;7.95;7.15;;;19.60;99.90;;;;;;5067504;28;20029;-80
2021/06/17 04:16:00;;;;;;;7.43;6.75;;;19.70;99.90;;;;;;5084129;28;20028;-79
2021/06/17 04:18:29;;;;;;;7.30;6.60;;;19.80;99.90;;;;;;5067555;28;20028;-79
2021/06/17 04:20:57;;;;;;;8.73;6.83;;;20.00;99.90;;;;;;5084339;28;20059;-79
2021/06/17 04:23:24;;;;;;;7.10;6.38;;;20.10;99.90;;;;;;5083859;28;20037;-80
2021/06/17 04:25:52;;;;;;;7.32;6.43;;;20.20;99.90;;;;;;5084299;28;20040;-80
2021/06/17 04:28:20;;;;;;;7.43;6.05;;;20.40;99.90;;;;;;5083931;28;20056;-79
2021/06/17 04:30:47;;;;;;;7.97;6.68;;;20.50;99.90;;;;;;5085413;28;20094;-79
2021/06/17 04:33:17;;;;;;;7.13;5.50;;;20.70;99.90;;;;;;5083749;28;20028;-79
2021/06/17 04:35:45;;;;;;;6.70;5.53;;;20.90;99.90;;;;;;5081762;28;20127;-80
2021/06/17 04:38:19;;;;;;;7.43;6.63;;;21.10;99.90;;;;;;5083944;28;20028;-79
2021/06/17 04:40:49;;;;;;;5.53;5.03;;;21.30;99.90;;;;;;5067215;28;20033;-80
2021/06/17 04:43:21;;;;;;;4.97;4.55;;;21.50;99.90;;;;;;5066809;28;20441;-80
2021/06/17 04:45:48;;;;;;;6.35;5.13;;;21.60;99.90;;;;;;5083881;28;20042;-79
2021/06/17 04:48:15;;;;;;;6.13;5.20;;;21.80;99.90;;;;;;5076209;28;20084;-80
2021/06/17 04:50:40;;;;;;;6.68;5.10;;;21.90;99.90;;;;;;5094344;28;20056;-80
2021/06/17 04:53:08;;;;;;;5.10;4.63;;;22.10;99.90;;;;;;5087359;28;20028;-80
2021/06/17 04:55:35;;;;;;;4.35;3.95;;;22.10;99.90;;;;;;5053450;28;20036;-79
2021/06/17 04:58:00;;;;;;;7.50;5.15;;;22.20;99.90;;;;;;5064946;28;20033;-79
2021/06/17 05:00:26;;;;;;;6.28;4.90;;;22.40;99.90;;;;;;5063785;28;20072;-82
2021/06/17 05:02:51;;;;;;;5.20;4.70;;;22.50;99.90;;;;;;5063502;28;20036;-82
2021/06/17 05:05:17;;;;;;;4.88;4.43;;;22.60;99.90;;;;;;5047170;28;20080;-82
2021/06/17 05:12:54;;;;;;;4.30;3.90;;;22.90;99.90;;;;;;5083450;28;20527;-81
2021/06/17 05:15:20;;;;;;;7.35;3.92;;;23.00;99.90;;;;;;5066807;28;20058;-80
2021/06/17 05:17:46;;;;;;;5.30;4.47;;;23.10;99.90;;;;;;5067076;28;20039;-82
2021/06/17 05:20:13;;;;;;;4.88;3.90;;;23.20;99.90;;;;;;5069232;28;20035;-82
2021/06/17 05:22:41;;;;;;;5.00;3.70;;;23.20;99.90;;;;;;5088043;28;20040;-81
2021/06/17 05:25:08;;;;;;;5.90;3.42;;;23.40;99.90;;;;;;5087548;28;20052;-81
2021/06/17 05:27:34;;;;;;;4.55;3.63;;;23.40;99.90;;;;;;5071060;28;20058;-80
2021/06/17 05:29:59;;;;;;;3.92;3.53;;;23.50;99.90;;;;;;5070458;28;20045;-82
2021/06/17 05:32:25;;;;;;;4.22;2.88;;;23.60;99.90;;;;;;5070410;28;20024;-81
2021/06/17 05:34:51;;;;;;;4.07;3.45;;;23.70;99.90;;;;;;5088698;28;20078;-80
2021/06/17 05:37:17;;;;;;;4.18;3.67;;;23.90;99.90;;;;;;5086771;28;20119;-81
2021/06/17 05:39:43;;;;;;;4.05;2.83;;;23.90;99.90;;;;;;5070591;28;20032;-81
2021/06/17 05:42:09;;;;;;;3.47;2.95;;;23.90;99.90;;;;;;5070750;28;20445;-81
2021/06/17 05:44:35;;;;;;;5.05;3.17;;;23.90;99.90;;;;;;5087144;28;20032;-80
2021/06/17 05:47:00;;;;;;;3.05;2.75;;;24.20;99.90;;;;;;5070444;28;20043;-82
2021/06/17 05:49:26;;;;;;;4.13;2.80;;;24.20;99.90;;;;;;5055603;28;20117;-82
2021/06/17 05:51:52;;;;;;;3.00;2.47;;;24.30;99.90;;;;;;5086955;28;20090;-81
2021/06/17 05:54:18;;;;;;;3.78;3.00;;;24.50;99.90;;;;;;5086811;28;20074;-80
2021/06/17 05:56:44;;;;;;;4.00;2.92;;;24.70;99.90;;;;;;5086860;28;20036;-80
2021/06/17 05:59:10;;;;;;;2.80;2.45;;;24.80;99.90;;;;;;5086998;28;20024;-81
2021/06/17 06:01:35;;;;;;;3.95;3.30;;;24.90;99.90;;;;;;5088188;28;20033;-81
2021/06/17 06:04:01;;;;;;;3.13;2.80;;;25.00;99.90;;;;;;5087958;28;20040;-82
2021/06/17 06:06:27;;;;;;;3.85;2.55;;;25.30;99.90;;;;;;5070023;28;20037;-81
2021/06/17 06:08:52;;;;;;;4.90;3.03;;;25.30;99.90;;;;;;5086588;28;20036;-81
2021/06/17 06:11:19;;;;;;;4.03;2.60;;;25.50;99.90;;;;;;5086444;28;20036;-81
2021/06/17 06:13:46;;;;;;;3.85;2.25;;;25.50;99.90;;;;;;5086362;28;20033;-80
2021/06/17 06:16:12;;;;;;;4.57;2.53;;;25.70;99.90;;;;;;5086617;28;20033;-81
2021/06/17 06:18:37;;;;;;;4.15;2.60;;;25.90;99.90;;;;;;5086606;28;20025;-81
2021/06/17 06:21:03;;;;;;;2.70;1.98;;;25.80;99.90;;;;;;5070033;28;20060;-81
2021/06/17 06:23:29;;;;;;;3.08;2.00;;;25.80;99.90;;;;;;5087979;28;20025;-80
2021/06/17 06:25:56;;;;;;;4.20;2.50;;;25.80;99.90;;;;;;5086488;28;20017;-81
2021/06/17 06:28:22;;;;;;;5.68;2.60;;;26.00;99.90;;;;;;5069672;28;20044;-81
2021/06/17 06:30:50;;;;;;;3.58;2.33;;;26.30;99.90;;;;;;5086305;28;20041;-81
2021/06/17 06:33:17;;;;;;;3.47;1.98;;;26.40;99.90;;;;;;5069503;28;20020;-80
2021/06/17 06:35:43;;;;;;;2.85;2.20;;;26.50;99.90;;;;;;5086118;28;20040;-80
2021/06/17 06:38:10;;;;;;;2.85;2.10;;;26.60;99.90;;;;;;5087288;28;20029;-81
2021/06/17 06:40:36;;;;;;;2.65;2.00;;;26.70;99.90;;;;;;5085709;28;20032;-81
2021/06/17 06:43:03;;;;;;;2.00;1.65;;;26.70;99.90;;;;;;5086223;28;20046;-81
2021/06/17 06:45:48;;;;;;;3.22;1.42;;;27.10;99.90;;;;;;5085103;28;20029;-82
2021/06/17 06:48:16;;;;;;;3.38;1.88;;;27.10;99.90;;;;;;5031634;28;20043;-81
2021/06/17 06:50:42;;;;;;;3.25;1.90;;;27.10;99.90;;;;;;5061553;28;20049;-82
2021/06/17 06:53:07;;;;;;;4.68;2.25;;;27.30;99.90;;;;;;5029861;28;20060;-82
2021/06/17 06:55:33;;;;;;;5.72;1.77;;;27.30;99.90;;;;;;5047653;28;20108;-82
2021/06/17 06:57:59;;;;;;;3.67;2.20;;;27.40;99.90;;;;;;5031141;28;20033;-82
2021/06/17 07:00:25;;;;;;;5.05;2.80;;;27.30;99.90;;;;;;5031359;28;20040;-81
2021/06/17 07:02:50;;;;;;;3.28;1.52;;;27.50;99.90;;;;;;5047698;28;20097;-82
2021/06/17 07:05:16;;;;;;;3.13;1.60;;;27.80;99.90;;;;;;5031194;28;20052;-81
2021/06/17 07:07:42;;;;;;;2.80;1.40;;;27.90;99.90;;;;;;5031100;28;20017;-80
2021/06/17 07:10:08;;;;;;;2.97;2.22;;;28.40;99.90;;;;;;5064519;28;20059;-82
2021/06/17 07:12:34;;;;;;;2.08;1.17;;;28.30;99.90;;;;;;5030728;28;20039;-81
2021/06/17 07:15:00;;;;;;;2.97;1.67;;;28.00;99.90;;;;;;5047466;28;20075;-81
2021/06/17 07:17:27;;;;;;;5.82;1.80;;;27.70;99.90;;;;;;5047376;28;20424;-81
2021/06/17 07:19:55;;;;;;;3.15;1.20;;;27.70;99.90;;;;;;5064260;28;20052;-81
2021/06/17 07:22:24;;;;;;;2.92;1.58;;;28.30;99.90;;;;;;5047588;28;20040;-81
2021/06/17 07:24:53;;;;;;;2.20;1.33;;;28.80;99.90;;;;;;5040311;28;20040;-81
2021/06/17 07:27:19;;;;;;;2.85;1.40;;;29.20;99.90;;;;;;5068501;28;20032;-82
2021/06/17 07:29:45;;;;;;;2.28;1.30;;;28.90;99.90;;;;;;5085408;28;20123;-81
2021/06/17 07:32:10;;;;;;;4.55;1.65;;;28.40;99.90;;;;;;5085128;28;20086;-80
2021/06/17 07:34:36;;;;;;;2.15;1.70;;;28.10;99.90;;;;;;5085511;28;20040;-81
2021/06/17 07:37:02;;;;;;;2.65;1.75;;;28.90;99.90;;;;;;5086199;28;20031;-80
2021/06/17 07:39:28;;;;;;;2.22;1.10;;;28.80;99.90;;;;;;5084382;28;20437;-80
2021/06/17 07:41:53;;;;;;;3.88;1.55;;;28.80;99.90;;;;;;5067834;28;20036;-80
2021/06/17 07:44:19;;;;;;;2.00;1.15;;;28.60;99.90;;;;;;5068316;28;20029;-80
2021/06/17 07:46:45;;;;;;;2.60;1.13;;;28.50;99.90;;;;;;5068532;28;20037;-80
2021/06/17 07:49:10;;;;;;;2.30;1.33;;;28.00;99.90;;;;;;5069382;28;20044;-80
2021/06/17 07:51:37;;;;;;;2.15;1.20;;;28.30;99.90;;;;;;5087305;28;20038;-81
2021/06/17 07:54:04;;;;;;;2.25;1.25;;;28.70;99.90;;;;;;5068787;28;20032;-81
2021/06/17 07:56:31;;;;;;;2.00;1.13;;;28.80;99.90;;;;;;5086092;28;20039;-80
2021/06/17 07:58:57;;;;;;;2.70;1.58;;;28.90;99.90;;;;;;5067832;28;20029;-81
2021/06/17 08:01:24;;;;;;;4.30;1.88;;;29.30;99.90;;;;;;5084557;28;20036;-80
2021/06/17 08:03:50;;;;;;;2.42;1.35;;;28.80;99.90;;;;;;5084420;28;20032;-80
2021/06/17 08:06:16;;;;;;;2.20;1.70;;;28.70;99.90;;;;;;5084660;28;20040;-81
2021/06/17 08:08:42;;;;;;;2.58;1.67;;;28.80;99.90;;;;;;5085790;28;20039;-80
2021/06/17 08:11:08;;;;;;;3.55;1.67;;;29.10;99.90;;;;;;5067742;28;20029;-80
2021/06/17 08:13:34;;;;;;;3.55;1.77;;;29.20;99.90;;;;;;5084082;28;20024;-80
2021/06/17 08:16:00;;;;;;;3.58;2.05;;;29.40;99.90;;;;;;5084315;28;20055;-80
2021/06/17 08:18:27;;;;;;;3.95;2.00;;;29.90;99.90;;;;;;5067665;28;20048;-80
2021/06/17 08:20:54;;;;;;;2.80;1.40;;;29.80;99.90;;;;;;5085774;28;20036;-80
2021/06/17 08:23:21;;;;;;;5.72;1.77;;;29.80;99.90;;;;;;5085394;28;20025;-80
2021/06/17 08:25:51;;;;;;;3.10;1.48;;;29.80;99.90;;;;;;5084396;28;20059;-80
2021/06/17 08:28:17;;;;;;;2.35;1.42;;;30.10;99.90;;;;;;5085214;28;20066;-80
2021/06/17 08:30:43;;;;;;;2.90;1.30;;;30.10;99.90;;;;;;5067539;28;20389;-80
2021/06/17 08:33:08;;;;;;;4.30;1.30;;;30.00;99.90;;;;;;5085211;28;20031;-80
2021/06/17 08:35:34;;;;;;;2.90;1.42;;;30.10;99.90;;;;;;5085383;28;20044;-81
2021/06/17 08:38:00;;;;;;;2.17;1.05;;;30.60;99.90;;;;;;5067228;28;20490;-81
2021/06/17 08:40:30;;;;;;;2.55;1.08;;;30.60;99.90;;;;;;5083936;28;20036;-81
2021/06/17 08:43:00;;;;;;;1.75;0.90;;;30.60;99.90;;;;;;5067001;28;20062;-81
2021/06/17 08:45:46;;;;;;;2.35;1.40;;;30.60;99.90;;;;;;5083771;28;20041;-79
2021/06/17 08:48:12;;;;;;;1.75;0.93;;;30.40;99.90;;;;;;5045849;28;20029;-80
2021/06/17 08:50:38;;;;;;;1.98;0.90;;;30.60;99.90;;;;;;5045867;28;20091;-81
2021/06/17 08:53:04;;;;;;;3.90;1.00;;;30.90;99.90;;;;;;5062501;28;20037;-80
2021/06/17 08:55:30;;;;;;;2.05;0.90;;;30.80;99.90;;;;;;5045015;28;20044;-81
2021/06/17 08:57:57;;;;;;;2.92;0.82;;;30.90;99.90;;;;;;5062535;28;20033;-80
2021/06/17 09:00:41;;;;;;;3.63;1.25;;;31.10;99.90;;;;;;5045932;28;20074;-80
2021/06/17 09:03:16;;;;;;;2.53;1.50;;;31.40;99.90;;;;;;5062302;28;20090;-80
2021/06/17 09:05:43;;;;;;;1.35;0.90;;;31.00;99.90;;;;;;5045945;28;20048;-80
2021/06/17 09:08:11;;;;;;;2.33;1.10;;;31.10;99.90;;;;;;5045899;28;20036;-80
2021/06/17 09:10:42;;;;;;;4.15;1.08;;;31.50;99.90;;;;;;5045683;28;20113;-81
2021/06/17 09:13:09;;;;;;;1.77;1.25;;;31.50;99.90;;;;;;5045388;28;20043;-80
2021/06/17 09:15:44;;;;;;;2.75;1.20;;;31.10;99.90;;;;;;5062100;28;20033;-80
2021/06/17 09:18:30;;;;;;;2.25;1.23;;;31.40;99.90;;;;;;5062398;28;20324;-80
2021/06/17 09:21:08;;;;;;;3.08;1.30;;;31.40;99.90;;;;;;5029136;28;20029;-80
2021/06/17 09:24:00;;;;;;;3.92;1.35;;;31.60;99.90;;;;;;5062227;28;20033;-81
2021/06/17 09:26:29;;;;;;;4.88;0.90;;;31.50;99.90;;;;;;5060357;28;20041;-81
2021/06/17 09:29:00;;;;;;;3.92;0.98;;;31.30;99.90;;;;;;5063530;28;20473;-80
2021/06/17 09:31:32;;;;;;;3.25;1.30;;;31.30;99.90;;;;;;5063384;28;20134;-81
2021/06/17 09:33:59;;;;;;;3.67;0.93;;;32.30;99.90;;;;;;5064173;28;20033;-81
2021/06/17 09:36:33;;;;;;;3.17;1.20;;;31.90;99.90;;;;;;5064576;28;20041;-80
2021/06/17 09:39:10;;;;;;;2.75;1.15;;;31.70;99.90;;;;;;5063384;28;20040;-81
2021/06/17 09:41:42;;;;;;;2.63;1.13;;;32.00;99.90;;;;;;5063440;28;20063;-80
2021/06/17 09:44:27;;;;;;;3.63;0.95;;;32.50;99.90;;;;;;5046462;28;20492;-80
2021/06/17 09:47:21;;;;;;;2.70;0.90;;;32.40;99.90;;;;;;5081165;22;20048;-79
2021/06/17 09:49:48;;;;;;;1.88;1.10;;;32.30;99.90;;;;;;5066764;28;20047;-81
2021/06/17 09:52:16;;;;;;;2.80;0.90;;;32.80;99.90;;;;;;5083726;28;20067;-80
2021/06/17 09:54:43;;;;;;;4.60;1.08;;;32.60;99.90;;;;;;5084790;28;20035;-80
2021/06/17 09:57:23;;;;;;;4.55;1.30;;;32.40;99.90;;;;;;5066884;28;20113;-80
2021/06/17 09:59:50;;;;;;;3.03;0.85;;;32.50;99.90;;;;;;5083313;28;20039;-79
2021/06/17 10:02:25;;;;;;;4.88;0.85;;;32.40;99.90;;;;;;5083446;28;20029;-80
2021/06/17 10:05:07;;;;;;;3.08;0.90;;;32.40;99.90;;;;;;5083412;28;20042;-80
2021/06/17 10:07:33;;;;;;;3.55;1.00;;;33.10;99.90;;;;;;5087302;28;20275;-81
2021/06/17 10:09:59;;;;;;;1.80;0.90;;;32.90;99.90;;;;;;5088284;28;20089;-81
2021/06/17 10:12:25;;;;;;;3.20;0.98;;;32.70;99.90;;;;;;5087160;28;20112;-80
2021/06/17 10:14:51;;;;;;;2.40;0.80;;;32.60;99.90;;;;;;5070433;28;20059;-79
2021/06/17 10:17:17;;;;;;;2.00;1.05;;;32.90;99.90;;;;;;5087985;28;20055;-80
2021/06/17 10:19:43;;;;;;;2.00;0.95;;;32.80;99.70;;;;;;5086766;28;20059;-80
2021/06/17 10:22:10;;;;;;;1.73;0.90;;;32.70;99.90;;;;;;5086599;28;20413;-80
2021/06/17 10:24:39;;;;;;;3.30;1.00;;;32.80;99.80;;;;;;5086618;28;20029;-80
2021/06/17 10:27:12;;;;;;;2.53;0.85;;;33.30;99.90;;;;;;5087785;28;20040;-79
2021/06/17 10:29:44;;;;;;;4.20;0.90;;;33.30;99.90;;;;;;5087762;28;20037;-80
2021/06/17 10:32:16;;;;;;;2.10;1.00;;;33.60;99.40;;;;;;5086211;28;20043;-79
2021/06/17 10:34:47;;;;;;;4.90;1.30;;;33.50;99.80;;;;;;5086303;28;20043;-80
2021/06/17 10:37:27;;;;;;;3.28;0.82;;;33.60;99.20;;;;;;5069667;28;20154;-81
2021/06/17 10:40:08;;;;;;;1.92;0.85;;;33.80;99.00;;;;;;5069842;28;20033;-80
2021/06/17 10:43:16;;;;;;;3.25;0.80;;;34.10;98.70;;;;;;5086137;28;20032;-80
2021/06/17 10:46:01;;;;;;;3.13;0.70;;;33.70;98.00;;;;;;5086070;28;20025;-80
2021/06/17 10:48:42;;;;;;;1.40;0.70;;;34.10;98.10;;;;;;5044517;28;20113;-80
2021/06/17 10:51:09;;;;;;;3.95;1.10;;;34.30;97.70;;;;;;5028434;28;20041;-80
2021/06/17 10:53:35;;;;;;;3.95;0.80;;;34.20;98.20;;;;;;5044831;28;20052;-80
2021/06/17 10:56:05;;;;;;;2.08;0.70;;;34.40;98.10;;;;;;5044999;28;20029;-80
2021/06/17 10:58:45;;;;;;;3.67;1.00;;;34.50;97.80;;;;;;5044777;28;20112;-80
2021/06/17 11:01:37;;;;;;;4.57;0.90;;;34.20;97.80;;;;;;5044652;28;20029;-80
2021/06/17 11:04:23;;;;;;;3.58;0.88;;;34.30;97.40;;;;;;5027999;28;20049;-80
2021/06/17 11:06:48;;;;;;;3.47;0.80;;;34.30;97.70;;;;;;5044569;28;20042;-80
2021/06/17 11:09:33;;;;;;;2.40;0.80;;;34.80;98.10;;;;;;5037843;28;20045;-80
2021/06/17 11:11:59;;;;;;;1.67;0.80;;;34.80;98.00;;;;;;5008328;28;20076;-80
2021/06/17 11:14:25;;;;;;;4.03;1.00;;;35.20;97.90;;;;;;5008168;28;20124;-80
2021/06/17 11:16:55;;;;;;;1.80;0.98;;;34.70;96.20;;;;;;5007250;28;20099;-81
2021/06/17 11:19:21;;;;;;;1.95;0.77;;;34.90;96.50;;;;;;5008312;28;20093;-81
2021/06/17 11:21:48;;;;;;;1.50;0.70;;;34.40;97.50;;;;;;5008251;28;20026;-81
2021/06/17 11:24:21;;;;;;;2.13;0.73;;;34.80;97.00;;;;;;5008129;28;20030;-82
2021/06/17 11:26:49;;;;;;;5.07;1.27;;;35.10;96.20;;;;;;5049774;28;20096;-81
2021/06/17 11:29:20;;;;;;;2.95;1.30;;;34.20;97.10;;;;;;5065257;28;20029;-80
2021/06/17 11:31:54;;;;;;;3.72;1.15;;;34.70;97.30;;;;;;5066400;28;20033;-79
2021/06/17 11:34:38;;;;;;;3.00;1.02;;;35.00;95.80;;;;;;5066414;28;20044;-80
2021/06/17 11:37:15;;;;;;;4.05;1.00;;;35.00;96.40;;;;;;5065084;28;20044;-80
2021/06/17 11:39:41;;;;;;;2.67;1.35;;;35.00;96.20;;;;;;5064941;28;20033;-81
2021/06/17 11:42:16;;;;;;;3.10;1.08;;;34.10;97.90;;;;;;5064906;28;20025;-81
2021/06/17 11:44:41;;;;;;;3.10;1.45;;;34.50;97.20;;;;;;5064992;28;20041;-80
2021/06/17 11:47:10;;;;;;;2.50;0.90;;;34.20;97.10;;;;;;5060789;28;20067;-80
2021/06/17 11:49:37;;;;;;;;;;;34.80;97.00;;;;;;5066589;28;20055;-81
2021/06/17 11:52:17;;;;;;;4.07;1.38;;;35.10;96.60;;;;;;5064775;28;19943;-81
2021/06/17 11:54:47;;;;;;;3.45;1.40;;;34.60;96.50;;;;;;5066110;28;20539;-81
2021/06/17 11:57:14;;;;;;;2.33;1.05;;;34.60;96.30;;;;;;5066224;28;20165;-81
2021/06/17 11:59:44;;;;;;;3.10;1.00;;;34.50;96.60;;;;;;5064752;28;20040;-80
2021/06/17 12:02:26;;;;;;;2.50;1.05;;;35.00;96.60;;;;;;5066101;28;20037;-80
2021/06/17 12:04:57;;;;;;;3.28;0.80;;;35.30;96.70;;;;;;5064467;28;20467;-80
2021/06/17 12:07:37;;;;;;;2.50;1.13;;;36.00;95.40;;;;;;5047976;28;20055;-80
2021/06/17 12:10:12;;;;;;;5.45;1.25;;;35.30;95.10;;;;;;5079046;28;20048;-80
2021/06/17 12:12:43;;;;;;;1.88;1.13;;;33.70;97.00;;;;;;5084482;28;20028;-81
2021/06/17 12:15:09;;;;;;;2.40;1.00;;;34.40;97.10;;;;;;5085764;28;20032;-80
2021/06/17 12:18:02;;;;;;;3.83;1.40;;;34.40;96.40;;;;;;5067719;28;20025;-80
2021/06/17 12:20:32;;;;;;;3.05;1.40;;;34.30;96.00;;;;;;5084506;28;20033;-80
2021/06/17 12:23:01;;;;;;;3.58;1.48;;;34.80;95.30;;;;;;5085626;28;20032;-80
2021/06/17 12:25:33;;;;;;;4.70;1.23;;;34.70;95.20;;;;;;5084253;28;20093;-80
2021/06/17 12:28:00;;;;;;;4.38;1.10;;;35.10;95.70;;;;;;5084124;28;20029;-80
2021/06/17 12:30:36;;;;;;;4.00;1.10;;;34.60;95.70;;;;;;5084059;28;20093;-81
2021/06/17 12:33:30;;;;;;;3.88;0.95;;;34.40;94.70;;;;;;5084242;28;20031;-81
2021/06/17 12:36:03;;;;;;;2.25;0.80;;;34.70;94.40;;;;;;5084160;28;20044;-80
2021/06/17 12:38:33;;;;;;;2.53;0.95;;;34.20;95.00;;;;;;5067465;28;20115;-80
2021/06/17 12:41:14;;;;;;;2.22;1.13;;;33.90;94.50;;;;;;5084208;28;20032;-81
2021/06/17 12:44:00;;;;;;;3.75;0.95;;;33.50;94.00;;;;;;5085217;28;20108;-80
2021/06/17 12:46:31;;;;;;;3.60;1.02;;;34.30;94.10;;;;;;5083154;28;20032;-82
2021/06/17 12:54:36;;;;;;;4.40;1.20;;;33.90;93.70;;;;;;5085144;28;20082;-80
2021/06/17 12:57:02;;;;;;;2.20;0.70;;;33.40;93.10;;;;;;5067103;28;20029;-80
2021/06/17 12:59:41;;;;;;;2.65;0.70;;;34.20;94.10;;;;;;5066947;28;20033;-81
2021/06/17 13:02:12;;;;;;;2.37;0.83;;;34.00;93.50;;;;;;5083621;28;20043;-81
2021/06/17 13:04:39;;;;;;;1.73;0.70;;;33.80;93.10;;;;;;5083479;28;20274;-81